Higgins, Oklahoma
Current Conditions -  °F | °C
As of 9:11 AM on Sunday 21 Dec 2014 (Local Time) from KMLC Reporting Station
Overcast Overcast  
Wind Chill:   Ceiling: 1400
Heat Index:   Visibility: 10mi
Dew Point:   Wind: 5mph
Humidity: 86%   Direction: NA
Pressure: 30.1"   Gusts: NA
Location:  34.8806°N, 95.3086°W
Report Text: KMLC 211511Z AUTO VRB04KT 10SM BKN014 OVC036 08/06 A3010 RMK AO2 T00780056
Loading
Personal Weather Stations






























Interactive Weather Map New forecast layout! Learn more

10-Day Weather Forecast

Advertisements
Track Severe Weather on mobile